sensor_id;sensor_type;location;lat;lon;timestamp;pressure;altitude;pressure_sealevel;temperature;humidity
38786;BME280;24535;45.508;12.252;2023-03-01T00:00:39;102018.91;;;8.01;47.88
38786;BME280;24535;45.508;12.252;2023-03-01T00:03:05;102030.22;;;8.03;48.12
38786;BME280;24535;45.508;12.252;2023-03-01T00:05:30;102026.66;;;8.04;47.82
38786;BME280;24535;45.508;12.252;2023-03-01T00:07:56;102038.09;;;8.03;47.28
38786;BME280;24535;45.508;12.252;2023-03-01T00:10:21;102032.66;;;8.07;47.79
38786;BME280;24535;45.508;12.252;2023-03-01T00:12:47;102043.16;;;8.07;47.66
38786;BME280;24535;45.508;12.252;2023-03-01T00:15:12;102037.00;;;8.08;47.60
38786;BME280;24535;45.508;12.252;2023-03-01T00:17:38;102033.53;;;8.08;47.58
38786;BME280;24535;45.508;12.252;2023-03-01T00:20:04;102034.47;;;8.05;47.98
38786;BME280;24535;45.508;12.252;2023-03-01T00:22:33;102029.22;;;8.05;47.75
38786;BME280;24535;45.508;12.252;2023-03-01T00:24:59;102026.56;;;8.07;47.55
38786;BME280;24535;45.508;12.252;2023-03-01T00:27:24;102023.13;;;8.05;47.85
38786;BME280;24535;45.508;12.252;2023-03-01T00:29:50;102023.13;;;8.05;47.51
38786;BME280;24535;45.508;12.252;2023-03-01T00:32:15;102018.88;;;8.02;47.67
38786;BME280;24535;45.508;12.252;2023-03-01T00:34:41;102014.50;;;8.01;47.56
38786;BME280;24535;45.508;12.252;2023-03-01T00:37:06;102011.84;;;8.03;47.74
38786;BME280;24535;45.508;12.252;2023-03-01T00:39:32;102005.75;;;8.02;47.57
38786;BME280;24535;45.508;12.252;2023-03-01T00:41:59;102010.94;;;8.04;47.94
38786;BME280;24535;45.508;12.252;2023-03-01T00:44:24;102011.72;;;8.06;47.84
38786;BME280;24535;45.508;12.252;2023-03-01T00:46:50;102006.44;;;8.07;47.68
38786;BME280;24535;45.508;12.252;2023-03-01T00:49:15;102001.13;;;8.09;48.03
38786;BME280;24535;45.508;12.252;2023-03-01T00:51:41;102005.44;;;8.10;47.86
38786;BME280;24535;45.508;12.252;2023-03-01T00:54:09;102004.50;;;8.12;47.55
38786;BME280;24535;45.508;12.252;2023-03-01T00:56:35;101984.34;;;8.13;47.33
38786;BME280;24535;45.508;12.252;2023-03-01T00:59:01;101989.56;;;8.14;47.37
38786;BME280;24535;45.508;12.252;2023-03-01T01:01:29;101986.78;;;8.17;47.83
38786;BME280;24535;45.508;12.252;2023-03-01T01:04:01;101966.66;;;8.18;47.38
38786;BME280;24535;45.508;12.252;2023-03-01T01:06:29;101965.69;;;8.21;47.45
38786;BME280;24535;45.508;12.252;2023-03-01T01:08:56;101968.31;;;8.21;47.21
38786;BME280;24535;45.508;12.252;2023-03-01T01:11:23;101950.00;;;8.19;47.19
38786;BME280;24535;45.508;12.252;2023-03-01T01:13:50;101955.25;;;8.19;47.13
38786;BME280;24535;45.508;12.252;2023-03-01T01:16:17;101954.28;;;8.22;46.90
38786;BME280;24535;45.508;12.252;2023-03-01T01:18:44;101942.00;;;8.22;47.17
38786;BME280;24535;45.508;12.252;2023-03-01T01:21:12;101938.41;;;8.25;46.91
38786;BME280;24535;45.508;12.252;2023-03-01T01:23:39;101933.97;;;8.27;47.13
38786;BME280;24535;45.508;12.252;2023-03-01T01:26:10;101924.25;;;8.29;47.53
38786;BME280;24535;45.508;12.252;2023-03-01T01:28:36;101925.94;;;8.31;47.59
38786;BME280;24535;45.508;12.252;2023-03-01T01:31:02;101917.34;;;8.26;46.94
38786;BME280;24535;45.508;12.252;2023-03-01T01:33:28;101912.84;;;8.30;46.92
38786;BME280;24535;45.508;12.252;2023-03-01T01:35:53;101905.81;;;8.30;46.97
38786;BME280;24535;45.508;12.252;2023-03-01T01:38:19;101905.78;;;8.32;47.17
38786;BME280;24535;45.508;12.252;2023-03-01T01:40:46;101902.16;;;8.34;46.94
38786;BME280;24535;45.508;12.252;2023-03-01T01:43:22;101899.50;;;8.36;46.83
38786;BME280;24535;45.508;12.252;2023-03-01T01:45:48;101892.47;;;8.36;47.21
38786;BME280;24535;45.508;12.252;2023-03-01T01:48:19;101890.63;;;8.40;46.98
38786;BME280;24535;45.508;12.252;2023-03-01T01:50:53;101887.06;;;8.41;47.03
38786;BME280;24535;45.508;12.252;2023-03-01T01:53:20;101882.66;;;8.41;47.05
38786;BME280;24535;45.508;12.252;2023-03-01T01:55:50;101868.69;;;8.41;46.85
38786;BME280;24535;45.508;12.252;2023-03-01T01:58:19;101877.38;;;8.43;47.14
38786;BME280;24535;45.508;12.252;2023-03-01T02:00:47;101871.19;;;8.44;46.60
38786;BME280;24535;45.508;12.252;2023-03-01T02:03:26;101866.72;;;8.46;47.15
38786;BME280;24535;45.508;12.252;2023-03-01T02:05:59;101858.06;;;8.44;46.47
38786;BME280;24535;45.508;12.252;2023-03-01T02:08:30;101852.84;;;8.42;46.93
38786;BME280;24535;45.508;12.252;2023-03-01T02:10:58;101850.97;;;8.46;47.74
38786;BME280;24535;45.508;12.252;2023-03-01T02:13:25;101845.59;;;8.49;46.67
38786;BME280;24535;45.508;12.252;2023-03-01T02:15:50;101841.09;;;8.53;46.85
38786;BME280;24535;45.508;12.252;2023-03-01T02:18:18;101848.84;;;8.56;47.13
38786;BME280;24535;45.508;12.252;2023-03-01T02:21:04;101836.56;;;8.56;47.07
38786;BME280;24535;45.508;12.252;2023-03-01T02:23:33;101830.34;;;8.59;47.05
38786;BME280;24535;45.508;12.252;2023-03-01T02:26:06;101826.84;;;8.58;46.54
38786;BME280;24535;45.508;12.252;2023-03-01T02:28:37;101823.34;;;8.58;46.99
38786;BME280;24535;45.508;12.252;2023-03-01T02:31:05;101826.84;;;8.58;46.84
38786;BME280;24535;45.508;12.252;2023-03-01T02:33:51;101821.47;;;8.61;46.54
38786;BME280;24535;45.508;12.252;2023-03-01T02:36:24;101821.47;;;8.61;46.54
38786;BME280;24535;45.508;12.252;2023-03-01T02:38:57;101829.34;;;8.61;46.54
38786;BME280;24535;45.508;12.252;2023-03-01T02:41:25;101823.31;;;8.59;46.23
38786;BME280;24535;45.508;12.252;2023-03-01T02:43:51;101818.91;;;8.60;46.41
38786;BME280;24535;45.508;12.252;2023-03-01T02:46:21;101803.19;;;8.58;46.76
38786;BME280;24535;45.508;12.252;2023-03-01T02:48:56;101804.94;;;8.59;47.12
38786;BME280;24535;45.508;12.252;2023-03-01T02:56:31;101800.72;;;8.55;46.38
38786;BME280;24535;45.508;12.252;2023-03-01T02:58:57;101799.06;;;8.53;46.82
38786;BME280;24535;45.508;12.252;2023-03-01T03:01:26;101798.16;;;8.54;46.33
38786;BME280;24535;45.508;12.252;2023-03-01T03:04:08;101792.03;;;8.53;46.69
38786;BME280;24535;45.508;12.252;2023-03-01T03:06:37;101789.41;;;8.53;46.72
38786;BME280;24535;45.508;12.252;2023-03-01T03:09:04;101788.56;;;8.53;46.27
38786;BME280;24535;45.508;12.252;2023-03-01T03:11:30;101770.31;;;8.50;46.84
38786;BME280;24535;45.508;12.252;2023-03-01T03:13:55;101779.03;;;8.50;46.58
38786;BME280;24535;45.508;12.252;2023-03-01T03:16:21;101771.31;;;8.47;47.21
38786;BME280;24535;45.508;12.252;2023-03-01T03:18:47;101771.41;;;8.44;46.77
38786;BME280;24535;45.508;12.252;2023-03-01T03:21:13;101773.13;;;8.45;47.06
38786;BME280;24535;45.508;12.252;2023-03-01T03:23:39;101770.56;;;8.44;47.13
38786;BME280;24535;45.508;12.252;2023-03-01T03:26:05;101770.56;;;8.44;46.95
38786;BME280;24535;45.508;12.252;2023-03-01T03:28:35;101768.84;;;8.42;46.91
38786;BME280;24535;45.508;12.252;2023-03-01T03:31:00;101770.56;;;8.44;47.15
38786;BME280;24535;45.508;12.252;2023-03-01T03:33:32;101762.75;;;8.42;46.78
38786;BME280;24535;45.508;12.252;2023-03-01T03:35:58;101769.84;;;8.40;46.75
38786;BME280;24535;45.508;12.252;2023-03-01T03:38:24;101761.97;;;8.40;47.29
38786;BME280;24535;45.508;12.252;2023-03-01T03:40:52;101758.34;;;8.42;47.41
38786;BME280;24535;45.508;12.252;2023-03-01T03:43:20;101756.59;;;8.43;46.94
38786;BME280;24535;45.508;12.252;2023-03-01T03:45:50;101748.72;;;8.43;47.12
38786;BME280;24535;45.508;12.252;2023-03-01T03:48:18;101746.88;;;8.45;46.63
38786;BME280;24535;45.508;12.252;2023-03-01T03:50:49;101748.53;;;8.48;46.78
38786;BME280;24535;45.508;12.252;2023-03-01T03:53:15;101744.84;;;8.52;47.17
38786;BME280;24535;45.508;12.252;2023-03-01T03:55:41;101743.81;;;8.56;46.67
38786;BME280;24535;45.508;12.252;2023-03-01T03:58:08;101741.09;;;8.57;47.35
38786;BME280;24535;45.508;12.252;2023-03-01T04:03:02;101731.41;;;8.59;47.09
38786;BME280;24535;45.508;12.252;2023-03-01T04:05:27;101726.78;;;8.64;46.97
38786;BME280;24535;45.508;12.252;2023-03-01T04:07:53;101725.94;;;8.64;46.55
38786;BME280;24535;45.508;12.252;2023-03-01T04:10:27;101717.88;;;8.69;47.21
38786;BME280;24535;45.508;12.252;2023-03-01T04:12:52;101719.56;;;8.70;46.50
38786;BME280;24535;45.508;12.252;2023-03-01T04:15:18;101718.59;;;8.72;46.62
38786;BME280;24535;45.508;12.252;2023-03-01T04:17:45;101725.47;;;8.75;46.26
38786;BME280;24535;45.508;12.252;2023-03-01T04:20:15;101715.84;;;8.75;46.61
38786;BME280;24535;45.508;12.252;2023-03-01T04:22:43;101713.22;;;8.75;46.76
38786;BME280;24535;45.508;12.252;2023-03-01T04:25:12;101714.81;;;8.78;46.33
38786;BME280;24535;45.508;12.252;2023-03-01T04:27:39;101726.91;;;8.82;46.36
38786;BME280;24535;45.508;12.252;2023-03-01T04:30:06;101707.66;;;8.81;46.62
38786;BME280;24535;45.508;12.252;2023-03-01T04:32:32;101717.19;;;8.84;46.77
38786;BME280;24535;45.508;12.252;2023-03-01T04:34:57;101717.13;;;8.85;46.41
38786;BME280;24535;45.508;12.252;2023-03-01T04:37:23;101714.41;;;8.87;46.39
38786;BME280;24535;45.508;12.252;2023-03-01T04:39:49;101714.38;;;8.88;46.86
38786;BME280;24535;45.508;12.252;2023-03-01T04:42:15;101722.13;;;8.91;46.46
38786;BME280;24535;45.508;12.252;2023-03-01T04:44:42;101715.84;;;8.94;46.75
38786;BME280;24535;45.508;12.252;2023-03-01T04:47:08;101726.38;;;8.94;46.72
38786;BME280;24535;45.508;12.252;2023-03-01T04:49:34;101730.66;;;8.97;46.37
38786;BME280;24535;45.508;12.252;2023-03-01T04:51:59;101721.75;;;8.99;46.40
38786;BME280;24535;45.508;12.252;2023-03-01T04:54:28;101721.75;;;8.99;46.71
38786;BME280;24535;45.508;12.252;2023-03-01T04:56:54;101724.38;;;8.99;46.95
38786;BME280;24535;45.508;12.252;2023-03-01T04:59:20;101720.84;;;9.00;46.95
38786;BME280;24535;45.508;12.252;2023-03-01T05:01:48;101716.38;;;9.02;46.97
38786;BME280;24535;45.508;12.252;2023-03-01T05:04:14;101718.16;;;9.02;46.42
38786;BME280;24535;45.508;12.252;2023-03-01T05:06:40;101717.31;;;9.01;46.80
38786;BME280;24535;45.508;12.252;2023-03-01T05:09:06;101721.59;;;9.04;46.58
38786;BME280;24535;45.508;12.252;2023-03-01T05:11:31;101707.50;;;9.05;46.96
38786;BME280;24535;45.508;12.252;2023-03-01T05:14:02;101703.19;;;9.04;46.74
38786;BME280;24535;45.508;12.252;2023-03-01T05:16:27;101714.38;;;9.07;46.89
38786;BME280;24535;45.508;12.252;2023-03-01T05:18:53;101711.00;;;9.05;46.65
38786;BME280;24535;45.508;12.252;2023-03-01T05:21:20;101704.75;;;9.08;46.88
38786;BME280;24535;45.508;12.252;2023-03-01T05:23:47;101710.84;;;9.08;46.57
38786;BME280;24535;45.508;12.252;2023-03-01T05:26:13;101710.78;;;9.10;46.97
38786;BME280;24535;45.508;12.252;2023-03-01T05:28:39;101712.56;;;9.09;46.88
38786;BME280;24535;45.508;12.252;2023-03-01T05:31:05;101708.06;;;9.11;46.61
38786;BME280;24535;45.508;12.252;2023-03-01T05:33:38;101700.06;;;9.14;46.66
38786;BME280;24535;45.508;12.252;2023-03-01T05:36:06;101696.44;;;9.17;47.06
38786;BME280;24535;45.508;12.252;2023-03-01T05:38:32;101689.31;;;9.19;46.50
38786;BME280;24535;45.508;12.252;2023-03-01T05:40:58;101681.25;;;9.24;46.72
38786;BME280;24535;45.508;12.252;2023-03-01T05:43:23;101683.88;;;9.24;46.66
38786;BME280;24535;45.508;12.252;2023-03-01T05:45:49;101687.28;;;9.26;47.03
38786;BME280;24535;45.508;12.252;2023-03-01T05:48:14;101673.41;;;9.22;47.14
38786;BME280;24535;45.508;12.252;2023-03-01T05:50:43;101680.31;;;9.25;47.07
38786;BME280;24535;45.508;12.252;2023-03-01T05:53:18;101678.63;;;9.24;46.89
38786;BME280;24535;45.508;12.252;2023-03-01T05:55:46;101680.47;;;9.22;46.62
38786;BME280;24535;45.508;12.252;2023-03-01T05:58:19;101683.94;;;9.22;47.30
38786;BME280;24535;45.508;12.252;2023-03-01T06:00:46;101687.41;;;9.23;47.36
38786;BME280;24535;45.508;12.252;2023-03-01T06:03:15;101677.59;;;9.26;47.45
38786;BME280;24535;45.508;12.252;2023-03-01T06:05:42;101673.91;;;9.30;47.15
38786;BME280;24535;45.508;12.252;2023-03-01T06:08:09;101672.00;;;9.34;47.28
38786;BME280;24535;45.508;12.252;2023-03-01T06:10:35;101676.28;;;9.36;47.25
38786;BME280;24535;45.508;12.252;2023-03-01T06:13:00;101671.00;;;9.36;47.47
38786;BME280;24535;45.508;12.252;2023-03-01T06:15:26;101675.25;;;9.39;47.15
38786;BME280;24535;45.508;12.252;2023-03-01T06:17:53;101673.56;;;9.38;47.53
38786;BME280;24535;45.508;12.252;2023-03-01T06:20:23;101691.19;;;9.36;47.40
38786;BME280;24535;45.508;12.252;2023-03-01T06:22:49;101698.16;;;9.37;47.22
38786;BME280;24535;45.508;12.252;2023-03-01T06:25:18;101706.09;;;9.35;47.44
38786;BME280;24535;45.508;12.252;2023-03-01T06:27:45;101700.78;;;9.37;47.12
38786;BME280;24535;45.508;12.252;2023-03-01T06:30:14;101708.59;;;9.38;47.38
38786;BME280;24535;45.508;12.252;2023-03-01T06:32:40;101708.53;;;9.40;47.41
38786;BME280;24535;45.508;12.252;2023-03-01T06:35:10;101705.84;;;9.41;47.05
38786;BME280;24535;45.508;12.252;2023-03-01T06:37:36;101711.81;;;9.45;47.02
38786;BME280;24535;45.508;12.252;2023-03-01T06:40:05;101700.34;;;9.46;47.28
38786;BME280;24535;45.508;12.252;2023-03-01T06:42:47;101698.56;;;9.47;46.99
38786;BME280;24535;45.508;12.252;2023-03-01T06:45:14;101709.03;;;9.48;46.79
38786;BME280;24535;45.508;12.252;2023-03-01T06:47:40;101702.84;;;9.49;46.87
38786;BME280;24535;45.508;12.252;2023-03-01T06:50:06;101695.81;;;9.50;47.00
38786;BME280;24535;45.508;12.252;2023-03-01T06:52:31;101678.09;;;9.53;46.75
38786;BME280;24535;45.508;12.252;2023-03-01T06:54:57;101682.34;;;9.56;47.34
38786;BME280;24535;45.508;12.252;2023-03-01T06:57:22;101680.50;;;9.58;46.65
38786;BME280;24535;45.508;12.252;2023-03-01T06:59:48;101670.69;;;9.61;46.47
38786;BME280;24535;45.508;12.252;2023-03-01T07:02:14;101665.31;;;9.64;46.67
38786;BME280;24535;45.508;12.252;2023-03-01T07:04:40;101665.13;;;9.68;46.78
38786;BME280;24535;45.508;12.252;2023-03-01T07:07:06;101667.72;;;9.69;46.65
38786;BME280;24535;45.508;12.252;2023-03-01T07:09:32;101658.75;;;9.73;46.76
38786;BME280;24535;45.508;12.252;2023-03-01T07:11:57;101657.53;;;9.80;46.73
38786;BME280;24535;45.508;12.252;2023-03-01T07:14:23;101665.25;;;9.83;46.36
38786;BME280;24535;45.508;12.252;2023-03-01T07:16:52;101648.31;;;9.89;46.66
38786;BME280;24535;45.508;12.252;2023-03-01T07:19:18;101644.75;;;9.90;46.41
38786;BME280;24535;45.508;12.252;2023-03-01T07:21:44;101650.00;;;9.90;46.68
38786;BME280;24535;45.508;12.252;2023-03-01T07:24:10;101648.78;;;9.97;46.10
38786;BME280;24535;45.508;12.252;2023-03-01T07:26:36;101630.19;;;10.00;46.32
38786;BME280;24535;45.508;12.252;2023-03-01T07:29:03;101640.56;;;10.03;46.11
38786;BME280;24535;45.508;12.252;2023-03-01T07:31:29;101644.59;;;10.10;45.79
38786;BME280;24535;45.508;12.252;2023-03-01T07:33:55;101645.22;;;10.15;46.35
38786;BME280;24535;45.508;12.252;2023-03-01T07:36:21;101643.19;;;10.21;45.62
38786;BME280;24535;45.508;12.252;2023-03-01T07:38:47;101628.09;;;10.24;45.88
38786;BME280;24535;45.508;12.252;2023-03-01T07:41:13;101628.97;;;10.25;45.70
38786;BME280;24535;45.508;12.252;2023-03-01T07:43:38;101622.81;;;10.26;45.68
38786;BME280;24535;45.508;12.252;2023-03-01T07:46:04;101618.06;;;10.32;45.75
38786;BME280;24535;45.508;12.252;2023-03-01T07:48:30;101628.53;;;10.34;45.57
38786;BME280;24535;45.508;12.252;2023-03-01T07:51:00;101629.28;;;10.36;45.49
38786;BME280;24535;45.508;12.252;2023-03-01T07:53:26;101632.78;;;10.36;45.40
38786;BME280;24535;45.508;12.252;2023-03-01T07:56:08;101623.97;;;10.37;45.33
38786;BME280;24535;45.508;12.252;2023-03-01T07:58:35;101619.59;;;10.36;46.00
38786;BME280;24535;45.508;12.252;2023-03-01T08:01:05;101622.19;;;10.38;45.01
38786;BME280;24535;45.508;12.252;2023-03-01T08:03:31;101631.78;;;10.39;45.36
38786;BME280;24535;45.508;12.252;2023-03-01T08:05:59;101621.38;;;10.36;45.27
38786;BME280;24535;45.508;12.252;2023-03-01T08:08:25;101616.13;;;10.36;45.37
38786;BME280;24535;45.508;12.252;2023-03-01T08:10:51;101630.84;;;10.40;45.38
38786;BME280;24535;45.508;12.252;2023-03-01T08:13:17;101627.44;;;10.38;45.24
38786;BME280;24535;45.508;12.252;2023-03-01T08:15:48;101611.53;;;10.39;45.31
38786;BME280;24535;45.508;12.252;2023-03-01T08:18:14;101621.16;;;10.40;45.38
38786;BME280;24535;45.508;12.252;2023-03-01T08:20:40;101623.78;;;10.40;45.45
38786;BME280;24535;45.508;12.252;2023-03-01T08:23:05;101623.03;;;10.38;45.19
38786;BME280;24535;45.508;12.252;2023-03-01T08:25:31;101604.59;;;10.38;45.32
38786;BME280;24535;45.508;12.252;2023-03-01T08:27:57;101603.56;;;10.41;45.04
38786;BME280;24535;45.508;12.252;2023-03-01T08:30:22;101590.38;;;10.41;45.40
38786;BME280;24535;45.508;12.252;2023-03-01T08:32:49;101595.66;;;10.41;45.15
38786;BME280;24535;45.508;12.252;2023-03-01T08:35:15;101584.13;;;10.44;45.22
38786;BME280;24535;45.508;12.252;2023-03-01T08:37:41;101588.97;;;10.51;44.79
38786;BME280;24535;45.508;12.252;2023-03-01T08:40:07;101577.19;;;10.58;45.25
38786;BME280;24535;45.508;12.252;2023-03-01T08:42:33;101581.88;;;10.69;44.90
38786;BME280;24535;45.508;12.252;2023-03-01T08:44:58;101586.41;;;10.83;45.02
38786;BME280;24535;45.508;12.252;2023-03-01T08:47:23;101573.50;;;10.94;45.10
38786;BME280;24535;45.508;12.252;2023-03-01T08:49:50;101569.16;;;11.09;44.86
38786;BME280;24535;45.508;12.252;2023-03-01T08:52:16;101573.69;;;11.23;44.86
38786;BME280;24535;45.508;12.252;2023-03-01T08:54:41;101578.06;;;11.38;44.79
38786;BME280;24535;45.508;12.252;2023-03-01T08:57:06;101579.09;;;11.51;44.31
38786;BME280;24535;45.508;12.252;2023-03-01T08:59:32;101567.91;;;11.62;44.20
38786;BME280;24535;45.508;12.252;2023-03-01T09:02:05;101567.38;;;11.71;43.70
38786;BME280;24535;45.508;12.252;2023-03-01T09:04:31;101560.03;;;11.76;43.88
38786;BME280;24535;45.508;12.252;2023-03-01T09:06:56;101540.53;;;11.79;43.99
38786;BME280;24535;45.508;12.252;2023-03-01T09:09:22;101523.66;;;11.81;43.55
38786;BME280;24535;45.508;12.252;2023-03-01T09:11:47;101522.69;;;11.82;43.29
38786;BME280;24535;45.508;12.252;2023-03-01T09:14:15;101518.13;;;11.86;43.10
38786;BME280;24535;45.508;12.252;2023-03-01T09:16:41;101525.34;;;11.82;43.15
38786;BME280;24535;45.508;12.252;2023-03-01T09:19:07;101518.31;;;11.83;43.29
38786;BME280;24535;45.508;12.252;2023-03-01T09:21:32;101520.88;;;11.84;42.99
38786;BME280;24535;45.508;12.252;2023-03-01T09:23:58;101520.97;;;11.83;43.48
38786;BME280;24535;45.508;12.252;2023-03-01T09:26:24;101526.25;;;11.83;43.16
38786;BME280;24535;45.508;12.252;2023-03-01T09:28:52;101527.75;;;11.87;43.10
38786;BME280;24535;45.508;12.252;2023-03-01T09:31:20;101526.81;;;11.88;43.13
38786;BME280;24535;45.508;12.252;2023-03-01T09:33:47;101532.16;;;11.86;42.96
38786;BME280;24535;45.508;12.252;2023-03-01T09:36:17;101538.41;;;11.85;42.98
38786;BME280;24535;45.508;12.252;2023-03-01T09:38:43;101530.47;;;11.85;43.12
38786;BME280;24535;45.508;12.252;2023-03-01T09:43:53;101518.94;;;12.17;43.34
38786;BME280;24535;45.508;12.252;2023-03-01T09:46:23;101518.38;;;12.40;43.39
38786;BME280;24535;45.508;12.252;2023-03-01T09:51:30;101505.50;;;12.62;42.41
38786;BME280;24535;45.508;12.252;2023-03-01T09:53:56;101501.34;;;12.58;42.25
38786;BME280;24535;45.508;12.252;2023-03-01T09:56:34;101514.00;;;12.53;41.65
38786;BME280;24535;45.508;12.252;2023-03-01T10:04:48;101531.19;;;12.18;41.66
38786;BME280;24535;45.508;12.252;2023-03-01T10:07:28;101529.97;;;12.09;41.57
38786;BME280;24535;45.508;12.252;2023-03-01T10:09:57;101508.34;;;12.02;42.50
38786;BME280;24535;45.508;12.252;2023-03-01T10:12:26;101497.22;;;11.97;42.46
38786;BME280;24535;45.508;12.252;2023-03-01T10:17:39;101489.84;;;11.88;42.69
38786;BME280;24535;45.508;12.252;2023-03-01T10:22:41;101517.69;;;11.78;42.82
38786;BME280;24535;45.508;12.252;2023-03-01T10:25:08;101507.13;;;11.78;42.85
38786;BME280;24535;45.508;12.252;2023-03-01T10:30:27;101509.94;;;11.75;43.41
38786;BME280;24535;45.508;12.252;2023-03-01T10:32:57;101517.88;;;11.75;43.53
38786;BME280;24535;45.508;12.252;2023-03-01T10:35:26;101534.75;;;11.72;43.35
38786;BME280;24535;45.508;12.252;2023-03-01T10:38:12;101530.31;;;11.73;43.06
38786;BME280;24535;45.508;12.252;2023-03-01T10:40:59;101548.91;;;11.71;43.41
38786;BME280;24535;45.508;12.252;2023-03-01T10:46:31;101556.38;;;11.79;43.71
38786;BME280;24535;45.508;12.252;2023-03-01T10:49:20;101577.56;;;11.77;43.66
38786;BME280;24535;45.508;12.252;2023-03-01T10:51:51;101573.97;;;11.78;43.73
38786;BME280;24535;45.508;12.252;2023-03-01T10:54:21;101587.28;;;11.77;43.39
38786;BME280;24535;45.508;12.252;2023-03-01T10:56:56;101590.03;;;11.75;43.69
38786;BME280;24535;45.508;12.252;2023-03-01T11:04:34;101601.94;;;11.67;43.52
38786;BME280;24535;45.508;12.252;2023-03-01T11:07:00;101600.25;;;11.66;43.46
38786;BME280;24535;45.508;12.252;2023-03-01T11:09:30;101599.38;;;11.65;43.86
38786;BME280;24535;45.508;12.252;2023-03-01T11:12:03;101593.25;;;11.64;43.92
38786;BME280;24535;45.508;12.252;2023-03-01T11:14:36;101600.25;;;11.66;44.35
38786;BME280;24535;45.508;12.252;2023-03-01T11:17:05;101603.81;;;11.64;44.40
38786;BME280;24535;45.508;12.252;2023-03-01T11:19:32;101589.78;;;11.64;44.40
38786;BME280;24535;45.508;12.252;2023-03-01T11:22:05;101607.69;;;11.59;44.36
38786;BME280;24535;45.508;12.252;2023-03-01T11:24:40;101599.25;;;11.52;43.80
38786;BME280;24535;45.508;12.252;2023-03-01T11:30:03;101601.47;;;11.44;44.61
38786;BME280;24535;45.508;12.252;2023-03-01T11:32:36;101594.41;;;11.45;44.95
38786;BME280;24535;45.508;12.252;2023-03-01T11:35:13;101602.47;;;11.42;44.50
38786;BME280;24535;45.508;12.252;2023-03-01T11:40:34;101597.41;;;11.38;44.63
38786;BME280;24535;45.508;12.252;2023-03-01T11:49:20;101599.41;;;11.49;44.65
38786;BME280;24535;45.508;12.252;2023-03-01T11:54:50;101604.28;;;11.41;44.83
38786;BME280;24535;45.508;12.252;2023-03-01T12:06:08;101600.63;;;11.28;45.24
38786;BME280;24535;45.508;12.252;2023-03-01T12:21:55;101608.97;;;11.04;45.85
38786;BME280;24535;45.508;12.252;2023-03-01T12:30:40;101600.88;;;10.92;47.03
38786;BME280;24535;45.508;12.252;2023-03-01T12:47:52;101603.59;;;10.90;46.63
38786;BME280;24535;45.508;12.252;2023-03-01T12:50:25;101618.47;;;10.91;46.65
38786;BME280;24535;45.508;12.252;2023-03-01T12:52:57;101595.59;;;10.92;46.41
38786;BME280;24535;45.508;12.252;2023-03-01T12:55:29;101590.22;;;10.93;46.32
38786;BME280;24535;45.508;12.252;2023-03-01T13:01:13;101587.34;;;10.98;46.07
38786;BME280;24535;45.508;12.252;2023-03-01T13:11:56;101585.22;;;11.04;46.48
38786;BME280;24535;45.508;12.252;2023-03-01T13:16:52;101584.28;;;11.05;46.41
38786;BME280;24535;45.508;12.252;2023-03-01T13:19:18;101567.56;;;11.06;46.92
38786;BME280;24535;45.508;12.252;2023-03-01T13:21:45;101578.94;;;11.07;46.24
38786;BME280;24535;45.508;12.252;2023-03-01T13:29:47;101568.16;;;11.11;46.27
38786;BME280;24535;45.508;12.252;2023-03-01T13:34:59;101552.31;;;11.11;46.33
38786;BME280;24535;45.508;12.252;2023-03-01T13:37:36;101552.16;;;11.14;46.64
38786;BME280;24535;45.508;12.252;2023-03-01T13:42:50;101556.38;;;11.17;46.71
38786;BME280;24535;45.508;12.252;2023-03-01T13:47:45;101531.53;;;11.21;47.13
38786;BME280;24535;45.508;12.252;2023-03-01T13:50:24;101528.75;;;11.24;46.83
38786;BME280;24535;45.508;12.252;2023-03-01T13:52:56;101538.28;;;11.27;46.58
38786;BME280;24535;45.508;12.252;2023-03-01T13:55:41;101525.25;;;11.24;46.84
38786;BME280;24535;45.508;12.252;2023-03-01T13:58:22;101513.88;;;11.23;46.76
38786;BME280;24535;45.508;12.252;2023-03-01T14:00:55;101520.81;;;11.24;47.31
38786;BME280;24535;45.508;12.252;2023-03-01T14:03:21;101512.81;;;11.26;47.79
38786;BME280;24535;45.508;12.252;2023-03-01T14:08:34;101510.59;;;11.34;48.01
38786;BME280;24535;45.508;12.252;2023-03-01T14:16:36;101488.19;;;11.41;48.12
38786;BME280;24535;45.508;12.252;2023-03-01T14:19:18;101481.91;;;11.44;48.48
38786;BME280;24535;45.508;12.252;2023-03-01T14:21:46;101479.16;;;11.45;48.49
38786;BME280;24535;45.508;12.252;2023-03-01T14:24:20;101478.03;;;11.49;47.99
38786;BME280;24535;45.508;12.252;2023-03-01T14:26:46;101477.88;;;11.52;48.01
38786;BME280;24535;45.508;12.252;2023-03-01T14:29:35;101480.41;;;11.54;47.93
38786;BME280;24535;45.508;12.252;2023-03-01T14:32:12;101479.38;;;11.56;47.60
38786;BME280;24535;45.508;12.252;2023-03-01T14:34:43;101475.81;;;11.57;47.77
38786;BME280;24535;45.508;12.252;2023-03-01T14:39:44;101473.16;;;11.57;47.36
38786;BME280;24535;45.508;12.252;2023-03-01T14:42:09;101475.81;;;11.57;47.43
38786;BME280;24535;45.508;12.252;2023-03-01T14:44:35;101474.13;;;11.56;47.38
38786;BME280;24535;45.508;12.252;2023-03-01T14:47:03;101468.72;;;11.58;46.90
38786;BME280;24535;45.508;12.252;2023-03-01T14:49:31;101477.69;;;11.55;46.88
38786;BME280;24535;45.508;12.252;2023-03-01T14:52:03;101474.13;;;11.56;47.25
38786;BME280;24535;45.508;12.252;2023-03-01T14:54:42;101475.81;;;11.57;46.62
38786;BME280;24535;45.508;12.252;2023-03-01T14:57:17;101478.44;;;11.57;46.96
38786;BME280;24535;45.508;12.252;2023-03-01T14:59:43;101491.63;;;11.57;46.96
38786;BME280;24535;45.508;12.252;2023-03-01T15:02:17;101489.84;;;11.58;47.26